Time;durP1;ratioP1;P1;durP2;ratioP2;P2;SDS_P1;SDS_P2;PMS_P1;PMS_P2;Temp;Humidity;BMP_temperature;BMP_pressure;BME280_temperature;BME280_humidity;BME280_pressure;Samples;Min_cycle;Max_cycle;Signal;HPM_P1;HPM_P2
2021/09/03 00:01:35;;;;;;;9.70;6.15;;;;;;;;;;4971320;28;20023;-79
2021/09/03 00:04:02;;;;;;;9.80;6.63;;;;;;;;;;4972576;28;20038;-81
2021/09/03 00:06:28;;;;;;;8.40;6.07;;;;;;;;;;4971985;28;20033;-82
2021/09/03 00:08:54;;;;;;;8.95;6.15;;;;;;;;;;4971639;28;20030;-83
2021/09/03 00:11:20;;;;;;;8.35;5.57;;;;;;;;;;4971113;28;20115;-80
2021/09/03 00:13:46;;;;;;;9.98;5.78;;;;;;;;;;4971303;28;20101;-84
2021/09/03 00:16:12;;;;;;;8.38;5.72;;;;;;;;;;4971778;28;20019;-83
2021/09/03 00:18:38;;;;;;;7.82;5.78;;;;;;;;;;4955433;28;20027;-84
2021/09/03 00:21:04;;;;;;;8.02;5.75;;;;;;;;;;4972391;28;20035;-81
2021/09/03 00:23:30;;;;;;;8.07;5.60;;;;;;;;;;4972139;28;20475;-84
2021/09/03 00:25:56;;;;;;;8.77;6.85;;;;;;;;;;4971484;28;20538;-82
2021/09/03 00:28:22;;;;;;;9.30;6.20;;;;;;;;;;4972000;28;20033;-85
2021/09/03 00:30:48;;;;;;;10.00;6.47;;;;;;;;;;4972358;28;20399;-82
2021/09/03 00:33:14;;;;;;;8.05;6.10;;;;;;;;;;4971759;28;20033;-81
2021/09/03 00:35:40;;;;;;;8.32;6.00;;;;;;;;;;4971252;28;20031;-81
2021/09/03 00:38:06;;;;;;;9.20;6.55;;;;;;;;;;4971831;28;20061;-82
2021/09/03 00:40:32;;;;;;;9.43;6.07;;;;;;;;;;4954320;28;20074;-80
2021/09/03 00:42:58;;;;;;;8.35;5.95;;;;;;;;;;4954208;28;20117;-81
2021/09/03 00:45:24;;;;;;;8.30;5.75;;;;;;;;;;4970871;28;20023;-81
2021/09/03 00:47:50;;;;;;;9.05;6.13;;;;;;;;;;4971932;28;20031;-81
2021/09/03 00:50:16;;;;;;;9.05;6.55;;;;;;;;;;4971885;28;20046;-81
2021/09/03 00:52:42;;;;;;;7.88;6.53;;;;;;;;;;4971827;28;20082;-81
2021/09/03 00:55:09;;;;;;;8.23;6.22;;;;;;;;;;4971915;28;20023;-79
2021/09/03 00:57:35;;;;;;;8.50;6.28;;;;;;;;;;4971327;28;20454;-81
2021/09/03 01:00:03;;;;;;;6.55;5.47;;;;;;;;;;4971667;28;20035;-80
2021/09/03 01:02:29;;;;;;;9.13;6.47;;;;;;;;;;4971358;28;20291;-80
2021/09/03 01:04:55;;;;;;;8.25;6.35;;;;;;;;;;4971974;28;20114;-83
2021/09/03 01:07:21;;;;;;;8.60;6.32;;;;;;;;;;4953642;28;20026;-83
2021/09/03 01:09:47;;;;;;;9.35;6.28;;;;;;;;;;4953851;28;20030;-82
2021/09/03 01:12:15;;;;;;;9.13;6.43;;;;;;;;;;4973300;28;20047;-79
2021/09/03 01:14:41;;;;;;;8.90;6.38;;;;;;;;;;4975016;28;20534;-83
2021/09/03 01:17:07;;;;;;;8.30;5.95;;;;;;;;;;4975355;28;20056;-82
2021/09/03 01:19:33;;;;;;;7.80;6.00;;;;;;;;;;4957186;28;20453;-80
2021/09/03 01:21:59;;;;;;;9.82;6.97;;;;;;;;;;4974573;28;20034;-81
2021/09/03 01:24:25;;;;;;;8.73;5.82;;;;;;;;;;4974952;28;20050;-81
2021/09/03 01:26:51;;;;;;;7.72;5.60;;;;;;;;;;4974607;28;20498;-83
2021/09/03 01:29:17;;;;;;;7.90;5.78;;;;;;;;;;4957562;28;20034;-82
2021/09/03 01:31:43;;;;;;;8.60;5.80;;;;;;;;;;4973606;28;20019;-83
2021/09/03 01:34:10;;;;;;;9.25;6.63;;;;;;;;;;4975076;28;20057;-75
2021/09/03 01:36:36;;;;;;;8.60;5.78;;;;;;;;;;4974599;28;20558;-83
2021/09/03 01:39:02;;;;;;;8.82;6.18;;;;;;;;;;4974138;28;20109;-82
2021/09/03 01:41:28;;;;;;;8.25;6.32;;;;;;;;;;4957033;28;20039;-81
2021/09/03 01:43:54;;;;;;;9.05;6.47;;;;;;;;;;4973393;28;20147;-83
2021/09/03 01:46:20;;;;;;;9.13;6.22;;;;;;;;;;4974455;28;20045;-84
2021/09/03 01:48:46;;;;;;;8.55;6.45;;;;;;;;;;4973590;28;20372;-83
2021/09/03 01:51:13;;;;;;;8.52;6.15;;;;;;;;;;4974720;28;20038;-83
2021/09/03 01:53:39;;;;;;;10.20;6.53;;;;;;;;;;4974872;28;20030;-83
2021/09/03 01:56:06;;;;;;;7.85;6.03;;;;;;;;;;4957390;28;20030;-83
2021/09/03 01:58:32;;;;;;;7.57;5.68;;;;;;;;;;4974229;28;20059;-84
2021/09/03 02:00:59;;;;;;;9.00;6.10;;;;;;;;;;4974777;28;20050;-84
2021/09/03 02:03:25;;;;;;;8.85;6.38;;;;;;;;;;4956699;28;20049;-84
2021/09/03 02:05:50;;;;;;;11.32;7.07;;;;;;;;;;4974654;28;20471;-83
2021/09/03 02:08:16;;;;;;;7.40;6.05;;;;;;;;;;4956927;28;20034;-83
2021/09/03 02:10:42;;;;;;;8.77;6.10;;;;;;;;;;4973330;28;20415;-83
2021/09/03 02:13:09;;;;;;;8.27;6.15;;;;;;;;;;4973526;28;20490;-82
2021/09/03 02:15:35;;;;;;;8.85;6.35;;;;;;;;;;4974434;28;20150;-80
2021/09/03 02:18:01;;;;;;;8.05;6.22;;;;;;;;;;4957340;28;20029;-80
2021/09/03 02:20:27;;;;;;;8.45;6.13;;;;;;;;;;4973685;28;20039;-81
2021/09/03 02:22:53;;;;;;;9.02;6.70;;;;;;;;;;4973736;28;20035;-82
2021/09/03 02:25:19;;;;;;;7.82;6.18;;;;;;;;;;4974003;28;20395;-84
2021/09/03 02:27:45;;;;;;;8.32;6.18;;;;;;;;;;4974328;28;20031;-83
2021/09/03 02:30:11;;;;;;;8.70;6.38;;;;;;;;;;4973578;28;20026;-82
2021/09/03 02:32:37;;;;;;;9.05;6.60;;;;;;;;;;4956773;28;20081;-81
2021/09/03 02:35:03;;;;;;;9.93;6.18;;;;;;;;;;4974103;28;20031;-77
2021/09/03 02:37:29;;;;;;;9.98;6.70;;;;;;;;;;4973818;28;20454;-76
2021/09/03 02:39:55;;;;;;;8.65;6.80;;;;;;;;;;4973213;28;20039;-81
2021/09/03 02:42:21;;;;;;;10.27;6.85;;;;;;;;;;4973280;28;20033;-77
2021/09/03 02:44:47;;;;;;;8.82;6.50;;;;;;;;;;4973539;28;20061;-78
2021/09/03 02:47:13;;;;;;;10.55;6.90;;;;;;;;;;4973557;28;20031;-77
2021/09/03 02:49:39;;;;;;;9.20;6.60;;;;;;;;;;4973863;28;20061;-76
2021/09/03 02:52:06;;;;;;;7.60;6.18;;;;;;;;;;4973566;28;20026;-77
2021/09/03 02:54:32;;;;;;;7.65;6.05;;;;;;;;;;4973270;28;20487;-76
2021/09/03 02:56:58;;;;;;;7.65;5.60;;;;;;;;;;4973362;28;20038;-81
2021/09/03 02:59:24;;;;;;;9.18;6.78;;;;;;;;;;4971979;28;20042;-78
2021/09/03 03:01:50;;;;;;;11.45;6.53;;;;;;;;;;4973460;28;20550;-77
2021/09/03 03:04:16;;;;;;;9.15;6.47;;;;;;;;;;4973249;28;20030;-79
2021/09/03 03:06:42;;;;;;;11.07;6.82;;;;;;;;;;4956228;28;20398;-77
2021/09/03 03:09:08;;;;;;;8.43;6.32;;;;;;;;;;4973065;28;20031;-81
2021/09/03 03:11:34;;;;;;;10.40;6.43;;;;;;;;;;4972750;28;20026;-79
2021/09/03 03:14:09;;;;;;;8.88;6.35;;;;;;;;;;4972588;28;20118;-78
2021/09/03 03:16:35;;;;;;;7.82;5.90;;;;;;;;;;4973749;28;20033;-79
2021/09/03 03:19:01;;;;;;;10.98;6.10;;;;;;;;;;4972531;28;20121;-82
2021/09/03 03:21:27;;;;;;;8.18;5.60;;;;;;;;;;4972799;28;20051;-76
2021/09/03 03:23:53;;;;;;;8.45;6.20;;;;;;;;;;4967360;28;20043;-81
2021/09/03 03:26:19;;;;;;;7.35;5.68;;;;;;;;;;4971509;28;20031;-79
2021/09/03 03:28:45;;;;;;;9.55;7.25;;;;;;;;;;4971629;28;20458;-79
2021/09/03 03:31:11;;;;;;;7.65;5.60;;;;;;;;;;4972142;28;20030;-77
2021/09/03 03:33:37;;;;;;;6.60;5.40;;;;;;;;;;4972564;28;20058;-79
2021/09/03 03:36:04;;;;;;;6.63;5.72;;;;;;;;;;4972508;28;20080;-78
2021/09/03 03:38:30;;;;;;;11.48;6.65;;;;;;;;;;4972429;28;20479;-77
2021/09/03 03:40:56;;;;;;;9.27;6.13;;;;;;;;;;4972760;28;20045;-82
2021/09/03 03:43:22;;;;;;;7.72;5.70;;;;;;;;;;4971962;28;20042;-81
2021/09/03 03:45:48;;;;;;;7.93;6.07;;;;;;;;;;4972863;28;20023;-80
2021/09/03 03:48:14;;;;;;;8.80;5.55;;;;;;;;;;4971955;28;20038;-77
2021/09/03 03:50:40;;;;;;;8.23;5.88;;;;;;;;;;4954393;28;20451;-75
2021/09/03 03:53:06;;;;;;;7.68;6.00;;;;;;;;;;4972197;28;20064;-83
2021/09/03 03:55:32;;;;;;;11.35;7.10;;;;;;;;;;4972781;28;20097;-82
2021/09/03 03:57:58;;;;;;;8.25;6.05;;;;;;;;;;4971820;28;20031;-87
2021/09/03 04:00:24;;;;;;;8.68;6.25;;;;;;;;;;4971253;28;20082;-84
2021/09/03 04:02:50;;;;;;;7.32;5.97;;;;;;;;;;4954908;28;20053;-78
2021/09/03 04:05:16;;;;;;;8.25;6.05;;;;;;;;;;4972112;28;20471;-79
2021/09/03 04:07:42;;;;;;;7.50;5.30;;;;;;;;;;4972621;28;20423;-78
2021/09/03 04:10:08;;;;;;;7.43;5.43;;;;;;;;;;4972013;28;20506;-75
2021/09/03 04:12:34;;;;;;;9.60;6.15;;;;;;;;;;4971592;28;20027;-81
2021/09/03 04:15:00;;;;;;;8.80;5.82;;;;;;;;;;4972105;28;20759;-77
2021/09/03 04:17:26;;;;;;;9.73;6.63;;;;;;;;;;4971299;28;20033;-76
2021/09/03 04:19:52;;;;;;;8.07;5.53;;;;;;;;;;4971954;28;20056;-73
2021/09/03 04:22:19;;;;;;;9.30;6.00;;;;;;;;;;4971794;28;20364;-79
2021/09/03 04:24:45;;;;;;;8.30;6.10;;;;;;;;;;4971967;28;20034;-81
2021/09/03 04:27:11;;;;;;;8.52;6.25;;;;;;;;;;4971901;28;20031;-78
2021/09/03 04:29:37;;;;;;;8.35;6.10;;;;;;;;;;4971611;28;20045;-78
2021/09/03 04:32:03;;;;;;;7.78;5.25;;;;;;;;;;4971196;28;20480;-79
2021/09/03 04:34:29;;;;;;;8.98;6.40;;;;;;;;;;4972194;28;20054;-74
2021/09/03 04:36:55;;;;;;;7.35;5.22;;;;;;;;;;4972244;28;20042;-79
2021/09/03 04:39:21;;;;;;;8.27;6.10;;;;;;;;;;4971478;28;20030;-81
2021/09/03 04:41:47;;;;;;;8.75;5.80;;;;;;;;;;4972163;28;20054;-82
2021/09/03 04:44:13;;;;;;;6.85;5.35;;;;;;;;;;4970990;28;20034;-82
2021/09/03 04:46:39;;;;;;;8.13;5.18;;;;;;;;;;4956536;28;20400;-81
2021/09/03 04:49:05;;;;;;;8.48;6.22;;;;;;;;;;4958415;28;20037;-82
2021/09/03 04:51:31;;;;;;;8.35;5.80;;;;;;;;;;4975923;28;20030;-84
2021/09/03 04:53:57;;;;;;;5.95;5.10;;;;;;;;;;4957818;28;20033;-84
2021/09/03 04:56:23;;;;;;;6.97;5.45;;;;;;;;;;4974982;28;20155;-81
2021/09/03 04:58:49;;;;;;;10.15;5.85;;;;;;;;;;4974161;28;20591;-80
2021/09/03 05:01:15;;;;;;;7.53;5.55;;;;;;;;;;4974319;28;20519;-81
2021/09/03 05:03:41;;;;;;;9.15;6.25;;;;;;;;;;4975748;28;20387;-82
2021/09/03 05:06:07;;;;;;;6.93;5.40;;;;;;;;;;4975246;28;20497;-82
2021/09/03 05:08:34;;;;;;;6.82;5.53;;;;;;;;;;4975806;28;20174;-82
2021/09/03 05:11:00;;;;;;;7.15;5.30;;;;;;;;;;4975507;28;20034;-86
2021/09/03 05:13:26;;;;;;;8.43;5.57;;;;;;;;;;4957441;28;20042;-85
2021/09/03 05:15:52;;;;;;;9.52;5.43;;;;;;;;;;4975647;28;20027;-83
2021/09/03 05:18:19;;;;;;;7.95;5.13;;;;;;;;;;4974364;28;20031;-85
2021/09/03 05:20:45;;;;;;;7.72;5.93;;;;;;;;;;4974573;28;20125;-86
2021/09/03 05:23:11;;;;;;;7.97;5.68;;;;;;;;;;4975160;28;20611;-87
2021/09/03 05:25:37;;;;;;;7.97;5.78;;;;;;;;;;4975912;28;20038;-86
2021/09/03 05:28:03;;;;;;;8.00;6.07;;;;;;;;;;4975149;28;20027;-84
2021/09/03 05:30:29;;;;;;;9.30;6.40;;;;;;;;;;4963976;28;20488;-86
2021/09/03 05:32:55;;;;;;;6.97;5.45;;;;;;;;;;4956914;29;20043;-87
2021/09/03 05:35:24;;;;;;;8.35;5.20;;;;;;;;;;4970214;28;20069;-85
2021/09/03 05:37:51;;;;;;;8.32;5.63;;;;;;;;;;4976506;28;20023;-86
2021/09/03 05:40:17;;;;;;;7.35;5.65;;;;;;;;;;4970770;28;20406;-88
2021/09/03 05:42:43;;;;;;;8.88;5.95;;;;;;;;;;4970447;28;20125;-75
2021/09/03 05:45:09;;;;;;;8.13;5.65;;;;;;;;;;4973791;28;20034;-73
2021/09/03 05:47:35;;;;;;;7.57;5.47;;;;;;;;;;4974153;28;20045;-76
2021/09/03 05:50:01;;;;;;;8.80;6.47;;;;;;;;;;4974961;28;20475;-74
2021/09/03 05:52:27;;;;;;;8.82;5.45;;;;;;;;;;4974807;28;20479;-76
2021/09/03 05:54:53;;;;;;;8.82;6.07;;;;;;;;;;4974527;28;20043;-77
2021/09/03 05:57:19;;;;;;;8.77;6.03;;;;;;;;;;4973221;28;20025;-75
2021/09/03 05:59:45;;;;;;;8.07;5.55;;;;;;;;;;4973886;28;20047;-80
2021/09/03 06:02:11;;;;;;;8.63;5.82;;;;;;;;;;4973592;28;20027;-80
2021/09/03 06:04:37;;;;;;;8.07;5.55;;;;;;;;;;4974396;28;20038;-80
2021/09/03 06:07:03;;;;;;;10.00;6.88;;;;;;;;;;4973982;28;20027;-78
2021/09/03 06:09:29;;;;;;;9.52;5.95;;;;;;;;;;4973909;28;20034;-81
2021/09/03 06:11:55;;;;;;;10.35;7.13;;;;;;;;;;4972811;28;20031;-76
2021/09/03 06:14:22;;;;;;;17.02;10.60;;;;;;;;;;4972010;28;20051;-84
2021/09/03 06:16:48;;;;;;;14.35;10.88;;;;;;;;;;4970666;28;20077;-82
2021/09/03 06:19:14;;;;;;;14.30;9.57;;;;;;;;;;4974197;28;20029;-83
2021/09/03 06:21:40;;;;;;;13.40;9.65;;;;;;;;;;4974067;28;20102;-83
2021/09/03 06:26:51;;;;;;;13.48;9.02;;;;;;;;;;4973461;28;20094;-80
2021/09/03 06:29:36;;;;;;;14.73;8.73;;;;;;;;;;4973020;28;20082;-73
2021/09/03 06:32:02;;;;;;;15.05;8.95;;;;;;;;;;4960927;28;20019;-74
2021/09/03 06:34:28;;;;;;;18.95;9.88;;;;;;;;;;4967282;28;20110;-81
2021/09/03 06:36:54;;;;;;;15.90;9.88;;;;;;;;;;4966267;28;20554;-78
2021/09/03 06:39:20;;;;;;;13.15;8.60;;;;;;;;;;4972835;28;20039;-76
2021/09/03 06:41:46;;;;;;;15.10;9.02;;;;;;;;;;4973909;28;20042;-77
2021/09/03 06:44:12;;;;;;;20.10;9.20;;;;;;;;;;4972490;28;20078;-80
2021/09/03 06:46:38;;;;;;;19.25;8.88;;;;;;;;;;4967062;28;20026;-78
2021/09/03 06:49:04;;;;;;;14.57;7.97;;;;;;;;;;4966912;28;20402;-75
2021/09/03 06:51:30;;;;;;;16.55;8.80;;;;;;;;;;4973208;28;20031;-73
2021/09/03 06:53:56;;;;;;;14.75;9.30;;;;;;;;;;4971975;28;20034;-73
2021/09/03 06:56:22;;;;;;;15.80;9.15;;;;;;;;;;4971625;28;20543;-73
2021/09/03 06:58:48;;;;;;;18.48;9.55;;;;;;;;;;4973304;28;20082;-74
2021/09/03 07:01:14;;;;;;;18.67;9.85;;;;;;;;;;4972636;28;20491;-77
2021/09/03 07:03:40;;;;;;;13.52;8.88;;;;;;;;;;4973403;28;20062;-77
2021/09/03 07:06:06;;;;;;;21.27;11.10;;;;;;;;;;4972515;28;20077;-77
2021/09/03 07:08:32;;;;;;;16.58;9.90;;;;;;;;;;4971539;28;20035;-77
2021/09/03 07:10:58;;;;;;;17.33;9.30;;;;;;;;;;4972806;28;20034;-78
2021/09/03 07:13:24;;;;;;;15.43;9.82;;;;;;;;;;4973079;28;20380;-76
2021/09/03 07:15:50;;;;;;;12.00;8.73;;;;;;;;;;4973321;28;20022;-77
2021/09/03 07:18:16;;;;;;;15.85;10.15;;;;;;;;;;4972050;28;20031;-78
2021/09/03 07:20:42;;;;;;;13.48;9.95;;;;;;;;;;4973137;28;20162;-77
2021/09/03 07:23:08;;;;;;;15.07;10.55;;;;;;;;;;4972868;28;20596;-78
2021/09/03 07:25:34;;;;;;;17.23;9.93;;;;;;;;;;4973059;28;20027;-77
2021/09/03 07:28:00;;;;;;;14.98;10.07;;;;;;;;;;4973131;28;20031;-78
2021/09/03 07:30:26;;;;;;;17.15;10.68;;;;;;;;;;4973049;28;20069;-77
2021/09/03 07:32:52;;;;;;;12.25;9.43;;;;;;;;;;4973047;28;20031;-76
2021/09/03 07:35:18;;;;;;;13.43;9.35;;;;;;;;;;4972986;28;20520;-78
2021/09/03 07:37:44;;;;;;;15.30;9.80;;;;;;;;;;4973205;28;20479;-78
2021/09/03 07:40:11;;;;;;;14.10;9.38;;;;;;;;;;4972464;28;20486;-76
2021/09/03 07:42:37;;;;;;;15.18;9.23;;;;;;;;;;4972741;28;20035;-78
2021/09/03 07:45:03;;;;;;;15.48;9.93;;;;;;;;;;4972530;28;20034;-78
2021/09/03 07:47:30;;;;;;;13.13;9.45;;;;;;;;;;4972803;28;20081;-78
2021/09/03 07:49:56;;;;;;;16.23;10.63;;;;;;;;;;4972718;28;20146;-77
2021/09/03 07:52:22;;;;;;;13.00;9.32;;;;;;;;;;4972350;28;20042;-78
2021/09/03 07:54:48;;;;;;;15.45;9.35;;;;;;;;;;4972903;28;20053;-78
2021/09/03 07:57:14;;;;;;;15.95;9.82;;;;;;;;;;4972360;28;20037;-78
2021/09/03 07:59:40;;;;;;;13.23;9.65;;;;;;;;;;4972481;28;20503;-75
2021/09/03 08:02:06;;;;;;;13.32;9.38;;;;;;;;;;4972296;28;20037;-75
2021/09/03 08:04:33;;;;;;;14.25;9.18;;;;;;;;;;4971326;28;20027;-74
2021/09/03 08:06:59;;;;;;;13.63;9.13;;;;;;;;;;4972452;28;20489;-75
2021/09/03 08:09:25;;;;;;;13.93;9.57;;;;;;;;;;4972179;28;20026;-76
2021/09/03 08:11:52;;;;;;;14.20;9.75;;;;;;;;;;4971117;28;20034;-75
2021/09/03 08:14:18;;;;;;;14.20;9.63;;;;;;;;;;4972427;28;20038;-74
2021/09/03 08:16:44;;;;;;;16.98;9.70;;;;;;;;;;4972410;28;20499;-74
2021/09/03 08:19:10;;;;;;;16.20;9.15;;;;;;;;;;4971978;28;20034;-74
2021/09/03 08:21:36;;;;;;;13.95;9.25;;;;;;;;;;4972132;28;20069;-74
2021/09/03 08:24:02;;;;;;;15.13;9.30;;;;;;;;;;4970818;28;20054;-77
2021/09/03 08:26:28;;;;;;;15.63;9.98;;;;;;;;;;4972281;28;20039;-74
2021/09/03 08:28:55;;;;;;;13.02;9.95;;;;;;;;;;4972294;28;20097;-78
2021/09/03 08:31:21;;;;;;;14.07;9.25;;;;;;;;;;4972221;28;20037;-77
2021/09/03 08:33:47;;;;;;;14.90;9.57;;;;;;;;;;4972526;28;20038;-78
2021/09/03 08:36:13;;;;;;;13.45;9.30;;;;;;;;;;4971814;28;20058;-78
2021/09/03 08:38:39;;;;;;;11.20;9.20;;;;;;;;;;4970910;28;20030;-77
2021/09/03 08:41:05;;;;;;;15.15;8.95;;;;;;;;;;4971641;28;20411;-75
2021/09/03 08:43:31;;;;;;;13.98;9.40;;;;;;;;;;4972106;28;20538;-75
2021/09/03 08:45:57;;;;;;;12.13;9.43;;;;;;;;;;4972143;28;20031;-73
2021/09/03 08:48:24;;;;;;;14.50;9.00;;;;;;;;;;4971773;28;20070;-75
2021/09/03 08:50:52;;;;;;;11.45;8.63;;;;;;;;;;4972302;28;20570;-75
2021/09/03 08:53:19;;;;;;;14.50;9.45;;;;;;;;;;4972083;28;20384;-76
2021/09/03 08:55:49;;;;;;;12.20;9.70;;;;;;;;;;4972025;28;20062;-76
2021/09/03 08:58:16;;;;;;;12.52;9.02;;;;;;;;;;4970444;28;20055;-75
2021/09/03 09:00:42;;;;;;;13.48;9.77;;;;;;;;;;4971864;28;20407;-75
2021/09/03 09:03:10;;;;;;;12.00;8.98;;;;;;;;;;4971679;28;20105;-75
2021/09/03 09:05:48;;;;;;;13.88;8.27;;;;;;;;;;4971934;28;20049;-77
2021/09/03 09:08:14;;;;;;;12.90;8.63;;;;;;;;;;4971642;28;20046;-74
2021/09/03 09:10:50;;;;;;;12.48;8.75;;;;;;;;;;4972019;28;20031;-74
2021/09/03 09:13:17;;;;;;;14.23;9.07;;;;;;;;;;4971654;28;20063;-74
2021/09/03 09:15:43;;;;;;;14.13;9.07;;;;;;;;;;4971806;28;20027;-73
2021/09/03 09:18:09;;;;;;;13.38;9.05;;;;;;;;;;4971542;28;20030;-77
2021/09/03 09:20:35;;;;;;;12.25;8.38;;;;;;;;;;4971766;28;20487;-74
2021/09/03 09:23:03;;;;;;;11.93;8.23;;;;;;;;;;4970267;28;20023;-77
2021/09/03 09:25:34;;;;;;;10.70;8.48;;;;;;;;;;4971754;28;20023;-77
2021/09/03 09:28:16;;;;;;;12.20;7.80;;;;;;;;;;4971750;28;20081;-77
2021/09/03 09:30:43;;;;;;;9.50;7.20;;;;;;;;;;4971710;28;20027;-74
2021/09/03 09:33:18;;;;;;;11.55;8.45;;;;;;;;;;4973932;28;20170;-76
2021/09/03 09:35:46;;;;;;;12.68;8.18;;;;;;;;;;4975117;28;20034;-77
2021/09/03 09:38:12;;;;;;;11.88;8.13;;;;;;;;;;4974894;28;20395;-76
2021/09/03 09:40:49;;;;;;;10.75;7.70;;;;;;;;;;4973619;28;20411;-77
2021/09/03 09:43:34;;;;;;;9.68;7.47;;;;;;;;;;4974668;28;20128;-78
2021/09/03 09:46:20;;;;;;;10.68;6.93;;;;;;;;;;4973728;28;20035;-77
2021/09/03 09:48:49;;;;;;;10.00;7.63;;;;;;;;;;4964797;28;20054;-78
2021/09/03 09:51:27;;;;;;;11.13;8.18;;;;;;;;;;4974558;28;20038;-77
2021/09/03 09:53:53;;;;;;;13.13;8.25;;;;;;;;;;4975090;28;20078;-78
2021/09/03 09:56:20;;;;;;;12.20;8.75;;;;;;;;;;4974543;28;20031;-75
2021/09/03 09:58:46;;;;;;;11.50;7.97;;;;;;;;;;4974741;28;20433;-77
2021/09/03 10:01:12;;;;;;;10.05;7.15;;;;;;;;;;4974296;28;20097;-77
2021/09/03 10:03:38;;;;;;;9.07;7.53;;;;;;;;;;4974627;28;20022;-76
2021/09/03 10:06:04;;;;;;;11.75;7.68;;;;;;;;;;4974339;28;20105;-77
2021/09/03 10:08:30;;;;;;;10.27;7.15;;;;;;;;;;4974507;28;20107;-77
2021/09/03 10:10:56;;;;;;;10.02;7.07;;;;;;;;;;4974485;28;20023;-75
2021/09/03 10:13:22;;;;;;;11.27;7.95;;;;;;;;;;4973175;28;20049;-77
2021/09/03 10:15:49;;;;;;;9.82;7.30;;;;;;;;;;4974403;28;20033;-77
2021/09/03 10:18:17;;;;;;;10.30;7.35;;;;;;;;;;4974081;28;20055;-77
2021/09/03 10:20:43;;;;;;;9.70;7.22;;;;;;;;;;4972954;28;20186;-77
2021/09/03 10:23:09;;;;;;;9.80;7.70;;;;;;;;;;4972783;28;20027;-77
2021/09/03 10:25:52;;;;;;;10.98;7.72;;;;;;;;;;4974150;28;20034;-78
2021/09/03 10:28:25;;;;;;;9.07;6.85;;;;;;;;;;4973937;28;20030;-77
2021/09/03 10:31:04;;;;;;;10.43;7.28;;;;;;;;;;4974167;28;20395;-78
2021/09/03 10:33:34;;;;;;;9.35;7.22;;;;;;;;;;4974099;28;20022;-77
2021/09/03 10:36:00;;;;;;;9.80;7.03;;;;;;;;;;4973982;28;20055;-77
2021/09/03 10:38:30;;;;;;;9.80;7.78;;;;;;;;;;4974352;28;20050;-77
2021/09/03 10:40:56;;;;;;;8.68;6.70;;;;;;;;;;4974048;28;20039;-77
2021/09/03 10:43:44;;;;;;;11.25;8.05;;;;;;;;;;4973581;28;20149;-77
2021/09/03 10:46:11;;;;;;;9.80;6.80;;;;;;;;;;4973563;28;20031;-76
2021/09/03 10:48:37;;;;;;;10.95;7.20;;;;;;;;;;4973851;28;20023;-77
2021/09/03 10:51:05;;;;;;;10.90;7.28;;;;;;;;;;4973502;28;20031;-74
2021/09/03 10:53:36;;;;;;;10.52;7.00;;;;;;;;;;4973645;28;20023;-74
2021/09/03 10:56:05;;;;;;;10.05;6.82;;;;;;;;;;4972172;28;20109;-77
2021/09/03 10:58:37;;;;;;;10.60;6.65;;;;;;;;;;4972366;28;20026;-74
2021/09/03 11:01:13;;;;;;;9.15;7.00;;;;;;;;;;4973295;28;20038;-75
2021/09/03 11:03:44;;;;;;;8.68;6.95;;;;;;;;;;4973498;28;20051;-76
2021/09/03 11:06:14;;;;;;;9.02;6.72;;;;;;;;;;4973104;28;20042;-74
2021/09/03 11:08:41;;;;;;;9.60;7.22;;;;;;;;;;4972205;28;20038;-74
2021/09/03 11:11:26;;;;;;;9.50;7.13;;;;;;;;;;4973118;28;20490;-77
2021/09/03 11:13:56;;;;;;;12.50;6.97;;;;;;;;;;4973337;28;20031;-75
2021/09/03 11:16:35;;;;;;;9.13;6.65;;;;;;;;;;4973061;28;20026;-77
2021/09/03 11:19:04;;;;;;;9.95;7.18;;;;;;;;;;4973062;28;20106;-73
2021/09/03 11:21:34;;;;;;;9.35;6.82;;;;;;;;;;4973361;28;20038;-78
2021/09/03 11:24:01;;;;;;;10.23;6.50;;;;;;;;;;4973200;28;20027;-73
2021/09/03 11:26:28;;;;;;;8.63;6.47;;;;;;;;;;4973413;28;20063;-74
2021/09/03 11:28:55;;;;;;;8.88;6.28;;;;;;;;;;4973199;28;20026;-77
2021/09/03 11:31:21;;;;;;;9.15;6.60;;;;;;;;;;4972714;28;20026;-74
2021/09/03 11:33:47;;;;;;;8.20;6.30;;;;;;;;;;4973033;28;20073;-75
2021/09/03 11:36:13;;;;;;;8.68;5.93;;;;;;;;;;4972709;28;20026;-74
2021/09/03 11:38:40;;;;;;;8.70;5.63;;;;;;;;;;4972998;28;20031;-73
2021/09/03 11:41:10;;;;;;;8.02;6.38;;;;;;;;;;4972411;28;20042;-77
2021/09/03 11:43:36;;;;;;;8.30;5.72;;;;;;;;;;4972767;28;20019;-77
2021/09/03 11:46:14;;;;;;;8.88;6.50;;;;;;;;;;4972490;28;20494;-78
2021/09/03 11:48:40;;;;;;;7.45;6.38;;;;;;;;;;4972843;28;20046;-78
2021/09/03 11:51:06;;;;;;;8.27;5.88;;;;;;;;;;4972478;28;20030;-77
2021/09/03 11:53:34;;;;;;;8.05;5.80;;;;;;;;;;4972678;28;20031;-77
2021/09/03 11:56:00;;;;;;;7.15;5.47;;;;;;;;;;4971387;28;20086;-78
2021/09/03 11:58:26;;;;;;;6.82;5.85;;;;;;;;;;4972837;28;20118;-78
2021/09/03 12:00:53;;;;;;;8.63;5.90;;;;;;;;;;4972625;28;20066;-78
2021/09/03 12:03:20;;;;;;;9.13;5.82;;;;;;;;;;4971035;28;20077;-77
2021/09/03 12:05:47;;;;;;;7.63;5.72;;;;;;;;;;4972455;28;20394;-78
2021/09/03 12:08:13;;;;;;;6.95;5.07;;;;;;;;;;4971063;28;20031;-77
2021/09/03 12:10:48;;;;;;;8.13;5.82;;;;;;;;;;4972457;28;20073;-78
2021/09/03 12:13:18;;;;;;;7.68;5.35;;;;;;;;;;4970943;28;20054;-77
2021/09/03 12:15:46;;;;;;;7.20;5.45;;;;;;;;;;4971143;28;20077;-78
2021/09/03 12:18:19;;;;;;;7.78;5.53;;;;;;;;;;4972214;28;20052;-78
2021/09/03 12:20:49;;;;;;;6.78;5.70;;;;;;;;;;4972695;28;20042;-77
2021/09/03 12:23:15;;;;;;;8.05;5.45;;;;;;;;;;4970829;28;20054;-78
2021/09/03 12:25:41;;;;;;;7.47;5.78;;;;;;;;;;4972387;28;20069;-78
2021/09/03 12:28:14;;;;;;;7.97;5.78;;;;;;;;;;4972117;28;20054;-78
2021/09/03 12:30:41;;;;;;;6.95;5.20;;;;;;;;;;4972345;28;20058;-78
2021/09/03 12:33:36;;;;;;;6.13;4.80;;;;;;;;;;4972038;28;20023;-77
2021/09/03 12:36:07;;;;;;;8.20;6.23;;;;;;;;;;4959724;28;20101;-78
2021/09/03 12:38:36;;;;;;;7.13;5.10;;;;;;;;;;4972330;28;20057;-78
2021/09/03 12:41:06;;;;;;;6.28;4.95;;;;;;;;;;4971892;28;20045;-77
2021/09/03 12:43:32;;;;;;;7.15;5.35;;;;;;;;;;4970934;28;20502;-78
2021/09/03 12:45:59;;;;;;;7.43;5.35;;;;;;;;;;4972448;28;20019;-77
2021/09/03 12:48:24;;;;;;;7.20;5.25;;;;;;;;;;4971918;28;20487;-78
2021/09/03 12:50:54;;;;;;;6.47;4.65;;;;;;;;;;4972230;28;20042;-77
2021/09/03 12:53:20;;;;;;;6.68;5.43;;;;;;;;;;4971897;28;20027;-78
2021/09/03 12:55:49;;;;;;;6.90;5.60;;;;;;;;;;4972077;28;20018;-78
2021/09/03 12:58:15;;;;;;;6.93;5.57;;;;;;;;;;4971924;28;20033;-78
2021/09/03 13:00:41;;;;;;;8.30;5.82;;;;;;;;;;4971981;28;20165;-78
2021/09/03 13:03:07;;;;;;;6.60;5.13;;;;;;;;;;4971877;28;20080;-79
2021/09/03 13:05:34;;;;;;;7.50;5.45;;;;;;;;;;4972012;28;20031;-77
2021/09/03 13:08:00;;;;;;;9.27;5.95;;;;;;;;;;4974778;28;20512;-75
2021/09/03 13:10:26;;;;;;;9.52;5.90;;;;;;;;;;4976039;28;20023;-78
2021/09/03 13:12:53;;;;;;;8.38;6.28;;;;;;;;;;4975716;28;20023;-78
2021/09/03 13:15:19;;;;;;;7.63;5.53;;;;;;;;;;4975340;28;20439;-79
2021/09/03 13:17:45;;;;;;;6.80;4.88;;;;;;;;;;4975563;28;20023;-79
2021/09/03 13:20:11;;;;;;;6.53;5.60;;;;;;;;;;4975321;28;20357;-78
2021/09/03 13:22:37;;;;;;;8.55;4.90;;;;;;;;;;4975673;28;20042;-78
2021/09/03 13:25:03;;;;;;;7.18;5.47;;;;;;;;;;4975236;28;20023;-78
2021/09/03 13:27:29;;;;;;;7.55;4.93;;;;;;;;;;4975707;28;20038;-78
2021/09/03 13:29:55;;;;;;;7.88;5.03;;;;;;;;;;4975255;28;20023;-76
2021/09/03 13:32:21;;;;;;;8.05;5.45;;;;;;;;;;4975064;28;20034;-78
2021/09/03 13:34:47;;;;;;;6.45;5.38;;;;;;;;;;4975340;28;20061;-77
2021/09/03 13:37:13;;;;;;;6.90;5.32;;;;;;;;;;4975021;28;20479;-77
2021/09/03 13:39:41;;;;;;;7.65;5.90;;;;;;;;;;4975076;28;20034;-76
2021/09/03 13:42:07;;;;;;;7.22;5.18;;;;;;;;;;4974771;28;20041;-77
2021/09/03 13:44:33;;;;;;;6.40;5.38;;;;;;;;;;4973738;28;20538;-74
2021/09/03 13:46:59;;;;;;;7.13;5.00;;;;;;;;;;4975327;28;20166;-77
2021/09/03 13:49:25;;;;;;;6.07;5.20;;;;;;;;;;4974714;28;20023;-73
2021/09/03 13:51:51;;;;;;;6.68;5.80;;;;;;;;;;4973758;28;20844;-75
2021/09/03 13:54:17;;;;;;;7.82;5.43;;;;;;;;;;4974667;28;20023;-77
2021/09/03 13:56:43;;;;;;;8.15;5.82;;;;;;;;;;4974874;28;20038;-76
2021/09/03 13:59:11;;;;;;;7.38;5.45;;;;;;;;;;4974478;28;20041;-76
2021/09/03 14:01:37;;;;;;;6.88;4.90;;;;;;;;;;4973464;28;20041;-77
2021/09/03 14:04:03;;;;;;;9.43;5.38;;;;;;;;;;4974508;28;20027;-78
2021/09/03 14:06:29;;;;;;;7.20;5.22;;;;;;;;;;4975065;28;20034;-79
2021/09/03 14:08:55;;;;;;;6.82;5.25;;;;;;;;;;4973360;28;20118;-78
2021/09/03 14:11:21;;;;;;;9.85;5.95;;;;;;;;;;4974300;28;20066;-79
2021/09/03 14:13:47;;;;;;;8.00;5.80;;;;;;;;;;4974544;28;20065;-79
2021/09/03 14:16:13;;;;;;;7.75;5.72;;;;;;;;;;4974320;28;20130;-77
2021/09/03 14:18:41;;;;;;;6.35;4.90;;;;;;;;;;4974078;28;20499;-79
2021/09/03 14:21:07;;;;;;;7.60;6.00;;;;;;;;;;4974126;28;20031;-77
2021/09/03 14:23:33;;;;;;;9.95;5.88;;;;;;;;;;4974389;28;20030;-78
2021/09/03 14:25:59;;;;;;;7.28;5.32;;;;;;;;;;4974583;28;20035;-78
2021/09/03 14:28:25;;;;;;;5.95;5.18;;;;;;;;;;4972807;28;20454;-79
2021/09/03 14:30:51;;;;;;;7.28;5.35;;;;;;;;;;4972983;28;20038;-78
2021/09/03 14:33:17;;;;;;;6.70;5.13;;;;;;;;;;4974061;28;20015;-77
2021/09/03 14:35:43;;;;;;;9.98;5.85;;;;;;;;;;4972856;28;20035;-78
2021/09/03 14:38:09;;;;;;;8.35;5.68;;;;;;;;;;4973872;28;20518;-78
2021/09/03 14:40:36;;;;;;;7.70;6.05;;;;;;;;;;4973996;28;20140;-78